Snake River, Canada
Current Conditions -  °F | °C
As of 8:00 AM on Sunday 21 Dec 2014 (Local Time) from CYYE Reporting Station
Overcast Overcast  
Wind Chill: -6°   Ceiling: 3000
Heat Index:   Visibility: 15mi
Dew Point:   Wind: 6mph
Humidity: 85%   Direction: 310°NW
Pressure: 29.5"   Gusts: NA
Location:  59.04°N, 122.45°W
Report Text: CYYE 211500Z 31005KT 15SM OVC030 M15/M17 A2950 RMK SC8 SLP025
Loading
Personal Weather Stations






























Interactive Weather Map New forecast layout! Learn more

10-Day Weather Forecast

Advertisements
Track Severe Weather on mobile